createdAt,value
2018-11-14T00:00:59.817Z,84.63
2018-11-14T00:03:36.748Z,84.65
2018-11-14T00:06:14.277Z,84.87
2018-11-14T00:08:53.456Z,84.69
2018-11-14T00:11:28.211Z,84.78
2018-11-14T00:14:03.863Z,84.37
2018-11-14T00:16:39.982Z,84.90
2018-11-14T00:19:20.024Z,84.94
2018-11-14T00:21:58.626Z,85.17
2018-11-14T00:24:36.320Z,85.13
2018-11-14T00:27:13.484Z,85.03
2018-11-14T00:29:51.286Z,84.89
2018-11-14T00:32:28.383Z,84.91
2018-11-14T00:35:07.527Z,85.18
2018-11-14T00:37:44.401Z,85.29
2018-11-14T00:40:23.209Z,85.49
2018-11-14T00:43:00.383Z,85.12
2018-11-14T00:45:39.253Z,85.29
2018-11-14T00:48:19.186Z,85.33
2018-11-14T00:50:55.876Z,85.36
2018-11-14T00:53:28.932Z,85.30
2018-11-14T00:56:06.729Z,85.48
2018-11-14T00:58:43.635Z,85.57
2018-11-14T01:01:21.274Z,85.87
2018-11-14T01:04:00.043Z,85.63
2018-11-14T01:06:37.573Z,85.54
2018-11-14T01:09:16.623Z,85.79
2018-11-14T01:11:55.362Z,85.38
2018-11-14T01:14:33.151Z,85.72
2018-11-14T01:17:10.984Z,85.62
2018-11-14T01:19:48.721Z,85.88
2018-11-14T01:22:28.370Z,85.45
2018-11-14T01:25:05.455Z,85.74
2018-11-14T01:27:44.691Z,85.76
2018-11-14T01:30:20.568Z,85.20
2018-11-14T01:32:50.252Z,86.08
2018-11-14T01:35:19.868Z,85.42
2018-11-14T01:37:49.267Z,85.94
2018-11-14T01:40:22.024Z,85.83
2018-11-14T01:42:52.596Z,85.65
2018-11-14T01:45:21.970Z,85.70
2018-11-14T01:47:51.467Z,85.87
2018-11-14T01:50:20.794Z,85.88
2018-11-14T01:52:50.121Z,86.21
2018-11-14T01:55:20.597Z,85.96
2018-11-14T01:57:50.060Z,85.92
2018-11-14T02:01:23.073Z,85.97
2018-11-14T02:03:52.382Z,85.96
2018-11-14T02:06:21.730Z,85.87
2018-11-14T02:08:51.135Z,85.85
2018-11-14T02:11:20.435Z,85.61
2018-11-14T02:13:50.204Z,85.85
2018-11-14T02:16:19.571Z,85.92
2018-11-14T02:18:48.901Z,85.69
2018-11-14T02:21:18.207Z,85.74
2018-11-14T02:23:47.501Z,85.72
2018-11-14T02:26:16.823Z,85.80
2018-11-14T02:28:46.181Z,85.60
2018-11-14T02:31:15.506Z,85.59
2018-11-14T02:33:44.847Z,85.29
2018-11-14T02:36:14.162Z,85.69
2018-11-14T02:38:43.495Z,85.70
2018-11-14T02:41:12.811Z,85.90
2018-11-14T02:43:42.134Z,85.52
2018-11-14T02:46:11.567Z,85.99
2018-11-14T02:48:40.939Z,85.78
2018-11-14T02:51:27.845Z,86.25
2018-11-14T02:53:57.261Z,85.81
2018-11-14T02:56:26.541Z,86.24
2018-11-14T02:58:55.923Z,85.96
2018-11-14T03:01:25.283Z,85.48
2018-11-14T03:03:54.624Z,85.88
2018-11-14T03:06:23.943Z,85.56
2018-11-14T03:08:53.318Z,85.40
2018-11-14T03:11:22.627Z,85.08
2018-11-14T03:13:52.005Z,85.26
2018-11-14T03:16:21.358Z,85.33
2018-11-14T03:18:50.721Z,85.32
2018-11-14T03:21:20.571Z,85.55
2018-11-14T03:23:50.191Z,85.74
2018-11-14T03:26:19.562Z,85.75
2018-11-14T03:28:48.906Z,85.68
2018-11-14T03:31:18.231Z,86.12
2018-11-14T03:33:47.606Z,85.72
2018-11-14T03:36:18.829Z,86.02
2018-11-14T03:38:49.202Z,86.24
2018-11-14T03:41:18.542Z,86.09
2018-11-14T03:43:47.894Z,85.70
2018-11-14T03:46:17.252Z,85.96
2018-11-14T03:48:46.857Z,86.04
2018-11-14T03:51:16.231Z,85.88
2018-11-14T03:53:45.557Z,86.12
2018-11-14T03:56:18.124Z,85.46
2018-11-14T03:58:47.461Z,85.85
2018-11-14T04:01:16.801Z,85.62
2018-11-14T04:03:46.146Z,86.06
2018-11-14T04:06:15.542Z,85.78
2018-11-14T04:08:44.894Z,85.77
2018-11-14T04:11:14.258Z,85.71
2018-11-14T04:13:43.586Z,85.78
2018-11-14T04:16:13.036Z,85.71
2018-11-14T04:18:42.406Z,85.61
2018-11-14T04:21:11.794Z,85.62
2018-11-14T04:23:44.958Z,85.70
2018-11-14T04:26:14.365Z,86.21
2018-11-14T04:28:43.805Z,86.00
2018-11-14T04:31:13.170Z,85.68
2018-11-14T04:34:13.373Z,85.57
2018-11-14T04:36:42.771Z,85.39
2018-11-14T04:39:12.520Z,85.59
2018-11-14T04:41:41.901Z,85.89
2018-11-14T04:44:11.201Z,85.77
2018-11-14T04:46:40.537Z,85.53
2018-11-14T04:49:09.851Z,85.28
2018-11-14T04:51:39.173Z,85.42
2018-11-14T04:54:08.497Z,85.41
2018-11-14T04:56:37.859Z,85.36
2018-11-14T04:59:07.194Z,85.07
2018-11-14T05:01:36.573Z,85.64
2018-11-14T05:04:05.979Z,85.29
2018-11-14T05:06:36.558Z,85.40
2018-11-14T05:09:09.226Z,85.48
2018-11-14T05:11:38.591Z,84.49
2018-11-14T05:14:08.836Z,85.11
2018-11-14T05:16:38.214Z,85.48
2018-11-14T05:19:07.606Z,84.88
2018-11-14T05:21:36.975Z,85.48
2018-11-14T05:24:06.367Z,85.27
2018-11-14T05:26:35.716Z,85.54
2018-11-14T05:29:05.128Z,85.11
2018-11-14T05:31:34.490Z,85.42
2018-11-14T05:34:03.848Z,85.21
2018-11-14T05:36:33.198Z,85.09
2018-11-14T05:39:02.514Z,84.82
2018-11-14T05:41:31.833Z,85.14
2018-11-14T05:44:01.227Z,85.23
2018-11-14T05:46:30.608Z,85.34
2018-11-14T05:48:59.934Z,85.20
2018-11-14T05:51:29.250Z,84.95
2018-11-14T05:53:58.992Z,85.06
2018-11-14T05:56:28.363Z,85.20
2018-11-14T05:58:57.766Z,85.02
2018-11-14T06:01:27.117Z,85.00
2018-11-14T06:03:56.443Z,84.77
2018-11-14T06:06:27.067Z,84.68
2018-11-14T06:08:56.940Z,84.84
2018-11-14T06:11:26.306Z,85.05
2018-11-14T06:13:55.669Z,85.39
2018-11-14T06:16:24.982Z,85.04
2018-11-14T06:18:54.352Z,85.46
2018-11-14T06:21:23.746Z,85.05
2018-11-14T06:23:53.108Z,85.53
2018-11-14T06:26:22.463Z,85.28
2018-11-14T06:28:51.821Z,85.47
2018-11-14T06:31:21.143Z,85.22
2018-11-14T06:33:50.537Z,85.31
2018-11-14T06:36:19.898Z,85.34
2018-11-14T06:38:49.275Z,85.09
2018-11-14T06:41:18.680Z,85.25
2018-11-14T06:43:48.035Z,85.13
2018-11-14T06:46:17.350Z,85.28
2018-11-14T06:48:46.711Z,85.29
2018-11-14T06:51:16.059Z,85.32
2018-11-14T06:53:45.480Z,85.18
2018-11-14T06:56:14.833Z,85.23
2018-11-14T06:58:44.282Z,85.55
2018-11-14T07:01:13.547Z,85.22
2018-11-14T07:03:42.953Z,85.45
2018-11-14T07:06:12.319Z,85.27
2018-11-14T07:08:41.702Z,85.02
2018-11-14T07:11:11.122Z,85.50
2018-11-14T07:13:40.422Z,84.98
2018-11-14T07:16:09.743Z,85.10
2018-11-14T07:18:39.090Z,85.20
2018-11-14T07:21:08.442Z,84.92
2018-11-14T07:23:37.877Z,84.90
2018-11-14T07:26:07.246Z,85.02
2018-11-14T07:28:36.689Z,85.28
2018-11-14T07:31:06.536Z,85.00
2018-11-14T07:33:35.899Z,85.25
2018-11-14T07:36:06.502Z,84.86
2018-11-14T07:38:38.640Z,85.23
2018-11-14T07:41:10.169Z,84.46
2018-11-14T07:43:40.094Z,84.84
2018-11-14T07:46:10.048Z,84.79
2018-11-14T07:48:39.761Z,84.98
2018-11-14T07:51:09.142Z,84.78
2018-11-14T07:53:38.555Z,84.88
2018-11-14T07:56:07.963Z,84.66
2018-11-14T07:58:37.403Z,84.75
2018-11-14T08:01:07.382Z,84.36
2018-11-14T08:03:36.881Z,84.56
2018-11-14T08:06:06.349Z,84.37
2018-11-14T08:08:35.715Z,84.41
2018-11-14T08:11:07.123Z,84.61
2018-11-14T08:13:37.486Z,84.30
2018-11-14T08:16:07.119Z,84.29
2018-11-14T08:18:36.528Z,84.02
2018-11-14T08:21:06.984Z,84.24
2018-11-14T08:23:36.413Z,84.09
2018-11-14T08:26:06.789Z,84.14
2018-11-14T08:28:36.115Z,84.27
2018-11-14T08:31:06.350Z,84.30
2018-11-14T08:33:35.735Z,84.43
2018-11-14T08:36:06.696Z,84.29
2018-11-14T08:38:36.124Z,84.13
2018-11-14T08:41:06.759Z,84.01
2018-11-14T08:43:36.101Z,84.95
2018-11-14T08:46:07.342Z,84.21
2018-11-14T08:48:36.770Z,84.41
2018-11-14T08:51:06.873Z,84.54
2018-11-14T08:53:36.296Z,84.58
2018-11-14T08:56:06.350Z,84.76
2018-11-14T08:58:35.700Z,84.22
2018-11-14T09:01:05.335Z,84.48
2018-11-14T09:03:34.751Z,84.43
2018-11-14T09:06:04.129Z,84.10
2018-11-14T09:08:33.583Z,83.96
2018-11-14T09:11:03.092Z,83.80
2018-11-14T09:13:32.499Z,83.64
2018-11-14T09:16:01.889Z,83.64
2018-11-14T09:18:31.315Z,83.64
2018-11-14T09:21:01.219Z,83.88
2018-11-14T09:23:30.586Z,83.92
2018-11-14T09:25:59.953Z,84.02
2018-11-14T09:28:29.315Z,83.75
2018-11-14T09:30:58.655Z,83.51
2018-11-14T09:33:28.066Z,83.90
2018-11-14T09:35:57.383Z,83.54
2018-11-14T09:38:26.780Z,83.91
2018-11-14T09:40:56.156Z,83.79
2018-11-14T09:43:25.431Z,82.84
2018-11-14T09:45:54.774Z,83.20
2018-11-14T09:48:24.257Z,83.05
2018-11-14T09:50:53.642Z,82.65
2018-11-14T09:53:23.121Z,82.61
2018-11-14T09:55:52.401Z,82.51
2018-11-14T09:58:21.757Z,82.29
2018-11-14T10:00:51.192Z,82.29
2018-11-14T10:03:20.522Z,82.07
2018-11-14T10:05:49.920Z,82.06
2018-11-14T10:08:19.246Z,81.65
2018-11-14T10:10:48.608Z,81.27
2018-11-14T10:13:18.738Z,81.68
2018-11-14T10:15:48.166Z,81.08
2018-11-14T10:18:17.475Z,81.48
2018-11-14T10:20:46.834Z,80.98
2018-11-14T10:23:16.171Z,80.91
2018-11-14T10:25:45.489Z,81.28
2018-11-14T10:28:14.900Z,81.27
2018-11-14T10:30:44.285Z,81.22
2018-11-14T10:33:13.582Z,81.13
2018-11-14T10:35:42.923Z,80.43
2018-11-14T10:38:12.251Z,80.40
2018-11-14T10:40:41.587Z,80.97
2018-11-14T10:43:10.967Z,80.87
2018-11-14T10:45:40.269Z,80.87
2018-11-14T10:48:09.649Z,80.74
2018-11-14T10:50:39.005Z,80.23
2018-11-14T10:53:08.346Z,79.84
2018-11-14T10:55:37.772Z,80.17
2018-11-14T10:58:07.154Z,80.08
2018-11-14T11:00:41.662Z,79.76
2018-11-14T11:03:16.980Z,80.15
2018-11-14T11:07:57.205Z,80.24
2018-11-14T11:10:31.823Z,80.20
2018-11-14T11:13:06.515Z,80.74
2018-11-14T11:15:41.128Z,80.35
2018-11-14T11:18:12.459Z,80.41
2018-11-14T11:20:41.859Z,79.90
2018-11-14T11:23:11.253Z,80.20
2018-11-14T11:25:40.824Z,80.05
2018-11-14T11:28:10.176Z,79.65
2018-11-14T11:30:39.855Z,80.25
2018-11-14T11:33:09.207Z,79.76
2018-11-14T11:35:38.591Z,79.54
2018-11-14T11:38:07.943Z,79.20
2018-11-14T11:40:37.334Z,79.11
2018-11-14T11:43:06.997Z,79.68
2018-11-14T11:45:36.800Z,79.17
2018-11-14T11:48:06.268Z,79.40
2018-11-14T11:50:35.577Z,78.95
2018-11-14T11:58:04.472Z,78.77
2018-11-14T12:00:33.945Z,78.66
2018-11-14T12:03:03.210Z,78.20
2018-11-14T12:05:32.562Z,78.19
2018-11-14T12:08:01.900Z,78.00
2018-11-14T12:10:31.366Z,77.36
2018-11-14T12:13:00.721Z,76.99
2018-11-14T12:15:30.118Z,77.32
2018-11-14T12:17:59.470Z,76.51
2018-11-14T12:20:28.839Z,76.96
2018-11-14T12:22:58.197Z,76.24
2018-11-14T12:25:27.537Z,76.44
2018-11-14T12:27:56.887Z,76.47
2018-11-14T12:30:26.276Z,75.86
2018-11-14T12:32:55.590Z,75.59
2018-11-14T12:35:24.935Z,75.29
2018-11-14T12:37:54.323Z,75.45
2018-11-14T12:40:23.693Z,75.52
2018-11-14T12:42:53.063Z,74.86
2018-11-14T12:45:22.425Z,74.88
2018-11-14T12:47:51.873Z,74.58
2018-11-14T12:50:21.218Z,74.77
2018-11-14T12:52:50.653Z,74.70
2018-11-14T12:55:20.046Z,74.47
2018-11-14T12:57:49.428Z,74.62
2018-11-14T13:00:19.906Z,74.64
2018-11-14T13:02:49.256Z,74.31
2018-11-14T13:05:18.588Z,74.31
2018-11-14T13:07:48.005Z,73.65
2018-11-14T13:10:18.542Z,73.81
2018-11-14T13:12:48.872Z,72.97
2018-11-14T13:15:19.182Z,72.28
2018-11-14T13:17:48.514Z,71.88
2018-11-14T13:20:21.687Z,71.99
2018-11-14T13:22:51.015Z,72.24
2018-11-14T13:25:20.375Z,71.92
2018-11-14T13:27:50.242Z,71.65
2018-11-14T13:30:20.886Z,72.03
2018-11-14T13:32:50.989Z,71.97
2018-11-14T13:35:21.287Z,71.86
2018-11-14T13:37:51.208Z,72.03
2018-11-14T13:40:20.601Z,72.32
2018-11-14T13:42:49.972Z,71.58
2018-11-14T13:45:19.746Z,71.75
2018-11-14T13:47:49.105Z,72.31
2018-11-14T13:50:21.200Z,72.70
2018-11-14T13:52:50.382Z,72.08
2018-11-14T13:55:20.697Z,72.74
2018-11-14T13:57:51.070Z,73.13
2018-11-14T14:00:21.567Z,72.68
2018-11-14T14:02:52.039Z,72.59
2018-11-14T14:05:22.684Z,73.20
2018-11-14T14:07:52.030Z,72.99
2018-11-14T14:10:21.359Z,73.03
2018-11-14T14:12:52.008Z,73.14
2018-11-14T14:15:23.639Z,72.93
2018-11-14T14:17:52.984Z,72.73
2018-11-14T14:20:22.902Z,73.23
2018-11-14T14:22:52.252Z,72.91
2018-11-14T14:25:22.498Z,73.40
2018-11-14T14:27:51.823Z,73.48
2018-11-14T14:30:22.531Z,72.56
2018-11-14T14:32:51.905Z,73.15
2018-11-14T14:35:22.118Z,73.33
2018-11-14T14:37:51.518Z,72.95
2018-11-14T14:40:22.062Z,73.61
2018-11-14T14:42:51.690Z,73.16
2018-11-14T14:45:25.491Z,73.10
2018-11-14T14:47:54.821Z,73.59
2018-11-14T14:50:24.185Z,73.63
2018-11-14T14:52:53.562Z,73.53
2018-11-14T14:55:24.272Z,73.55
2018-11-14T14:57:53.627Z,73.58
2018-11-14T15:00:27.299Z,73.28
2018-11-14T15:02:56.925Z,73.73
2018-11-14T15:05:26.406Z,73.54
2018-11-14T15:07:55.771Z,73.89
2018-11-14T15:10:25.325Z,73.78
2018-11-14T15:12:54.741Z,74.27
2018-11-14T15:15:24.592Z,74.94
2018-11-14T15:17:54.081Z,74.30
2018-11-14T15:20:24.955Z,74.78
2018-11-14T15:22:54.838Z,74.86
2018-11-14T15:25:24.739Z,75.12
2018-11-14T15:27:54.430Z,75.49
2018-11-14T15:30:26.290Z,75.04
2018-11-14T15:32:57.028Z,75.24
2018-11-14T15:35:26.678Z,75.56
2018-11-14T15:37:56.372Z,75.72
2018-11-14T15:40:27.072Z,75.72
2018-11-14T15:42:57.738Z,75.85
2018-11-14T15:45:28.556Z,76.33
2018-11-14T15:47:58.240Z,75.99
2018-11-14T15:50:29.006Z,76.12
2018-11-14T15:52:59.018Z,76.27
2018-11-14T15:55:28.721Z,76.32
2018-11-14T15:57:58.477Z,76.72
2018-11-14T16:00:29.275Z,76.48
2018-11-14T16:02:58.775Z,76.51
2018-11-14T16:05:29.389Z,76.65
2018-11-14T16:08:00.151Z,76.81
2018-11-14T16:10:30.824Z,76.86
2018-11-14T16:13:00.463Z,77.40
2018-11-14T16:15:34.407Z,77.30
2018-11-14T16:18:04.126Z,77.39
2018-11-14T16:20:33.806Z,77.50
2018-11-14T16:23:03.421Z,77.47
2018-11-14T16:25:33.104Z,77.75
2018-11-14T16:28:03.126Z,78.20
2018-11-14T16:30:35.972Z,78.34
2018-11-14T16:33:07.563Z,78.35
2018-11-14T16:35:37.196Z,78.22
2018-11-14T16:38:07.052Z,78.61
2018-11-14T16:40:36.654Z,78.50
2018-11-14T16:43:07.897Z,78.66
2018-11-14T16:45:37.614Z,78.46
2018-11-14T16:48:07.287Z,78.76
2018-11-14T16:50:36.932Z,79.13
2018-11-14T16:53:06.687Z,78.80
2018-11-14T16:55:36.335Z,79.65
2018-11-14T16:58:06.946Z,78.90
2018-11-14T17:00:36.725Z,79.36
2018-11-14T17:03:07.377Z,79.48
2018-11-14T17:05:36.923Z,79.65
2018-11-14T17:08:06.804Z,79.72
2018-11-14T17:10:36.428Z,79.99
2018-11-14T17:13:06.803Z,80.07
2018-11-14T17:15:36.484Z,79.92
2018-11-14T17:18:06.768Z,79.81
2018-11-14T17:20:36.656Z,80.17
2018-11-14T17:23:06.660Z,80.31
2018-11-14T17:25:36.119Z,80.71
2018-11-14T17:28:06.403Z,80.49
2018-11-14T17:30:35.777Z,80.72
2018-11-14T17:33:07.123Z,80.78
2018-11-14T17:35:36.475Z,80.81
2018-11-14T17:38:06.736Z,80.81
2018-11-14T17:40:36.148Z,81.05
2018-11-14T17:43:06.624Z,81.19
2018-11-14T17:45:35.969Z,81.34
2018-11-14T17:48:06.103Z,81.67
2018-11-14T17:50:37.177Z,81.57
2018-11-14T17:53:06.534Z,81.79
2018-11-14T17:55:35.972Z,81.72
2018-11-14T17:58:06.399Z,81.75
2018-11-14T18:00:35.755Z,81.82
2018-11-14T18:03:06.121Z,81.71
2018-11-14T18:05:35.415Z,81.94
2018-11-14T18:08:06.229Z,82.06
2018-11-14T18:10:35.552Z,82.33
2018-11-14T18:13:06.266Z,81.86
2018-11-14T18:15:35.642Z,82.32
2018-11-14T18:18:06.347Z,82.40
2018-11-14T18:20:35.735Z,82.06
2018-11-14T18:23:06.106Z,82.80
2018-11-14T18:25:35.459Z,82.43
2018-11-14T18:28:06.291Z,82.58
2018-11-14T18:30:35.703Z,82.44
2018-11-14T18:33:29.909Z,82.76
2018-11-14T18:35:59.282Z,82.88
2018-11-14T18:38:28.654Z,82.83
2018-11-14T18:40:58.060Z,82.80
2018-11-14T18:43:27.465Z,82.64
2018-11-14T18:45:57.024Z,83.20
2018-11-14T18:48:26.302Z,82.69
2018-11-14T18:50:55.639Z,82.82
2018-11-14T18:53:25.173Z,83.23
2018-11-14T18:55:54.538Z,83.23
2018-11-14T18:58:23.932Z,83.32
2018-11-14T19:00:53.288Z,83.17
2018-11-14T19:04:25.693Z,83.08
2018-11-14T19:06:55.282Z,83.30
2018-11-14T19:09:24.565Z,83.47
2018-11-14T19:11:54.059Z,82.88
2018-11-14T19:14:23.446Z,83.37
2018-11-14T19:16:52.863Z,83.26
2018-11-14T19:19:22.292Z,83.12
2018-11-14T19:21:51.680Z,83.08
2018-11-14T19:24:21.057Z,83.42
2018-11-14T19:26:50.362Z,83.60
2018-11-14T19:29:19.733Z,83.43
2018-11-14T19:31:49.129Z,83.58
2018-11-14T19:34:18.476Z,83.38
2018-11-14T19:36:47.836Z,84.00
2018-11-14T19:39:17.266Z,84.01
2018-11-14T19:41:46.625Z,83.87
2018-11-14T19:44:16.074Z,84.01
2018-11-14T19:46:45.648Z,83.81
2018-11-14T19:49:15.429Z,84.09
2018-11-14T19:51:45.109Z,83.45
2018-11-14T19:54:14.855Z,83.45
2018-11-14T19:56:44.477Z,83.64
2018-11-14T19:59:14.230Z,83.61
2018-11-14T20:01:44.304Z,83.72
2018-11-14T20:04:15.033Z,83.74
2018-11-14T20:06:44.803Z,83.34
2018-11-14T20:09:14.262Z,83.58
2018-11-14T20:11:43.772Z,83.39
2018-11-14T20:14:13.371Z,83.38
2018-11-14T20:19:16.163Z,83.59
2018-11-14T20:21:45.749Z,83.77
2018-11-14T20:24:15.291Z,83.57
2018-11-14T20:26:45.086Z,83.90
2018-11-14T20:29:14.999Z,83.38
2018-11-14T20:31:44.730Z,83.63
2018-11-14T20:34:14.240Z,83.30
2018-11-14T20:36:43.820Z,83.48
2018-11-14T20:39:13.745Z,83.64
2018-11-14T20:41:43.250Z,83.45
2018-11-14T20:44:12.940Z,83.73
2018-11-14T20:46:42.514Z,83.43
2018-11-14T20:49:12.129Z,83.63
2018-11-14T20:51:41.722Z,83.35
2018-11-14T20:56:41.139Z,83.54
2018-11-14T21:01:49.223Z,83.79
2018-11-14T21:04:18.804Z,83.62
2018-11-14T21:06:48.370Z,83.35
2018-11-14T21:09:17.931Z,83.64
2018-11-14T21:11:47.438Z,83.50
2018-11-14T21:14:17.023Z,83.44
2018-11-14T21:16:46.560Z,83.33
2018-11-14T21:19:16.164Z,83.42
2018-11-14T21:21:45.679Z,83.45
2018-11-14T21:24:15.272Z,83.85
2018-11-14T21:26:55.271Z,83.68
2018-11-14T21:29:24.951Z,83.80
2018-11-14T21:31:54.472Z,84.03
2018-11-14T21:34:24.060Z,83.68
2018-11-14T21:36:53.645Z,83.91
2018-11-14T21:39:23.138Z,83.73
2018-11-14T21:41:55.452Z,83.87
2018-11-14T21:44:25.046Z,83.72
2018-11-14T21:46:54.825Z,83.63
2018-11-14T21:49:27.949Z,83.60
2018-11-14T21:51:58.573Z,83.46
2018-11-14T21:54:28.258Z,83.58
2018-11-14T21:56:58.194Z,83.79
2018-11-14T21:59:27.804Z,83.78
2018-11-14T22:01:57.395Z,83.50
2018-11-14T22:04:26.909Z,83.25
2018-11-14T22:06:56.622Z,83.53
2018-11-14T22:09:26.233Z,83.56
2018-11-14T22:11:55.819Z,83.31
2018-11-14T22:14:25.344Z,83.69
2018-11-14T22:16:55.027Z,83.77
2018-11-14T22:19:24.763Z,83.81
2018-11-14T22:21:54.578Z,83.90
2018-11-14T22:24:24.182Z,83.48
2018-11-14T22:26:53.686Z,83.64
2018-11-14T22:29:23.334Z,83.50
2018-11-14T22:31:52.995Z,83.67
2018-11-14T22:34:22.319Z,83.61
2018-11-14T22:36:51.683Z,84.10
2018-11-14T22:39:21.005Z,83.65
2018-11-14T22:41:50.334Z,83.95
2018-11-14T22:44:19.703Z,83.76
2018-11-14T22:46:49.064Z,84.16
2018-11-14T22:49:18.394Z,83.88
2018-11-14T22:51:47.765Z,84.38
2018-11-14T22:54:17.113Z,84.21
2018-11-14T22:56:47.170Z,84.20
2018-11-14T22:59:16.554Z,84.26
2018-11-14T23:01:45.955Z,83.96
2018-11-14T23:04:15.342Z,84.15
2018-11-14T23:06:44.758Z,83.94
2018-11-14T23:09:14.121Z,84.00
2018-11-14T23:11:43.531Z,84.28
2018-11-14T23:14:12.869Z,84.32
2018-11-14T23:16:44.372Z,84.06
2018-11-14T23:19:13.686Z,84.09
2018-11-14T23:21:43.050Z,84.40
2018-11-14T23:24:12.448Z,84.56
2018-11-14T23:26:41.780Z,84.28
2018-11-14T23:29:11.159Z,84.31
2018-11-14T23:31:40.497Z,84.50
2018-11-14T23:34:09.869Z,84.46
2018-11-14T23:36:39.259Z,84.58
2018-11-14T23:39:11.378Z,84.61
2018-11-14T23:41:40.717Z,84.79
2018-11-14T23:44:10.330Z,84.53
2018-11-14T23:46:39.668Z,84.77
2018-11-14T23:49:08.987Z,85.04
2018-11-14T23:51:38.355Z,85.12
2018-11-14T23:54:07.860Z,84.87
2018-11-14T23:56:37.303Z,85.03
2018-11-14T23:59:07.033Z,84.69
